Time;durP1;ratioP1;P1;durP2;ratioP2;P2;SDS_P1;SDS_P2;PMS_P1;PMS_P2;Temp;Humidity;BMP_temperature;BMP_pressure;BME280_temperature;BME280_humidity;BME280_pressure;Samples;Min_cycle;Max_cycle;Signal;HPM_P1;HPM_P2
2023/10/22 00:45:16;;;;;;;;;;;20.00;91.60;;;;;;4941219;23;42989;-80
2023/10/22 01:03:42;;;;;;;;;;;20.10;92.00;;;;;;5545764;23;44516;-80
2023/10/22 01:06:08;;;;;;;;;;;20.10;92.00;;;;;;4900088;29;42933;-80
2023/10/22 01:08:34;;;;;;;;;;;20.00;91.90;;;;;;4900958;29;42932;-80
2023/10/22 01:11:03;;;;;;;;;;;19.80;91.90;;;;;;4891800;29;43044;-80
2023/10/22 01:13:29;;;;;;;;;;;19.90;91.90;;;;;;4873468;29;44762;-80
2023/10/22 01:15:55;;;;;;;;;;;19.90;91.90;;;;;;4886784;29;43014;-80
2023/10/22 01:18:21;;;;;;;;;;;19.80;91.90;;;;;;4889858;29;43925;-80
2023/10/22 01:28:34;;;;;;;;;;;;;;;;;;5942177;23;43338;-80
2023/10/22 01:31:00;;;;;;;;;;;19.90;91.70;;;;;;4871410;29;42831;-80
2023/10/22 01:33:26;;;;;;;;;;;19.90;91.90;;;;;;4871089;29;42919;-80
2023/10/22 01:35:52;;;;;;;;;;;19.80;92.00;;;;;;4871558;29;43016;-80
2023/10/22 01:38:17;;;;;;;;;;;19.90;91.90;;;;;;4870979;29;44558;-80
2023/10/22 01:40:43;;;;;;;;;;;19.80;91.80;;;;;;4869764;29;43087;-80
2023/10/22 01:43:08;;;;;;;;;;;19.80;91.70;;;;;;4870127;29;43658;-80
2023/10/22 01:45:34;;;;;;;;;;;19.80;91.70;;;;;;4870600;29;42855;-80
2023/10/22 01:47:59;;;;;;;;;;;19.70;91.70;;;;;;4871031;29;42903;-80
2023/10/22 01:50:25;;;;;;;;;;;19.80;91.60;;;;;;4870587;29;43058;-80
2023/10/22 01:52:50;;;;;;;;;;;19.80;91.60;;;;;;4871061;29;43469;-80
2023/10/22 01:55:16;;;;;;;;;;;19.70;91.50;;;;;;4871084;29;43194;-80
2023/10/22 01:57:41;;;;;;;;;;;19.80;91.50;;;;;;4871135;29;42923;-80
2023/10/22 02:00:10;;;;;;;;;;;19.70;91.50;;;;;;4863525;29;43003;-80
2023/10/22 02:02:36;;;;;;;;;;;19.70;91.50;;;;;;4850698;29;43695;-80
2023/10/22 02:10:13;;;;;;;;;;;19.80;90.80;;;;;;5285068;23;43150;-81
2023/10/22 02:12:38;;;;;;;;;;;19.80;91.00;;;;;;4888926;29;42931;-81
2023/10/22 02:15:04;;;;;;;;;;;19.70;91.10;;;;;;4879636;29;43028;-81
2023/10/22 02:22:41;;;;;;;;;;;19.80;90.50;;;;;;5994313;23;44020;-81
2023/10/22 02:25:07;;;;;;;;;;;19.80;90.80;;;;;;4905585;29;43087;-80
2023/10/22 02:27:32;;;;;;;;;;;19.70;90.80;;;;;;4907673;29;43403;-80
2023/10/22 02:29:58;;;;;;;;;;;19.70;90.80;;;;;;4907468;29;43187;-80
2023/10/22 02:32:23;;;;;;;;;;;19.80;90.90;;;;;;4907352;29;43642;-80
2023/10/22 02:34:52;;;;;;;;;;;19.60;90.70;;;;;;4906565;29;43017;-80
2023/10/22 02:37:17;;;;;;;;;;;19.60;90.70;;;;;;4908186;29;42909;-80
2023/10/22 02:39:43;;;;;;;;;;;19.70;90.60;;;;;;4907388;29;42923;-81
2023/10/22 02:42:09;;;;;;;;;;;19.50;90.50;;;;;;4907151;29;43040;-80
2023/10/22 02:44:34;;;;;;;;;;;19.70;90.70;;;;;;4907642;29;42970;-80
2023/10/22 02:49:35;;;;;;;;;;;19.80;90.30;;;;;;5029397;23;42929;-80
2023/10/22 02:52:02;;;;;;;;;;;19.70;90.40;;;;;;4888907;29;43360;-80
2023/10/22 02:54:27;;;;;;;;;;;19.60;90.30;;;;;;4889168;29;42963;-80
2023/10/22 02:56:53;;;;;;;;;;;19.60;90.30;;;;;;4888879;29;43473;-80
2023/10/22 02:59:18;;;;;;;;;;;19.60;90.40;;;;;;4891723;29;42995;-80
2023/10/22 03:01:44;;;;;;;;;;;;;;;;;;4892068;29;42903;-80
2023/10/22 03:04:12;;;;;;;;;;;19.40;88.10;;;;;;4891042;29;60361;-80
2023/10/22 03:06:38;;;;;;;;;;;19.50;90.20;;;;;;4891615;29;44201;-80
2023/10/22 03:09:03;;;;;;;;;;;19.50;90.40;;;;;;4892213;29;43023;-80
2023/10/22 03:11:29;;;;;;;;;;;19.50;90.40;;;;;;4892194;29;43625;-80
2023/10/22 03:13:54;;;;;;;;;;;19.50;90.40;;;;;;4892163;29;42963;-80
2023/10/22 03:16:20;;;;;;;;;;;19.50;90.30;;;;;;4890601;29;42907;-80
2023/10/22 03:18:46;;;;;;;;;;;19.50;90.30;;;;;;4891826;29;42964;-80
2023/10/22 03:21:12;;;;;;;;;;;19.40;90.60;;;;;;4891053;29;43567;-80
2023/10/22 03:23:43;;;;;;;;;;;19.40;90.30;;;;;;4874561;29;42781;-80
2023/10/22 03:26:11;;;;;;;;;;;19.60;90.50;;;;;;4891638;29;43492;-80
2023/10/22 03:28:37;;;;;;;;;;;19.60;90.50;;;;;;4891471;29;42951;-80
2023/10/22 03:31:03;;;;;;;;;;;19.60;90.50;;;;;;4891951;29;43723;-80
2023/10/22 03:33:29;;;;;;;;;;;19.70;90.30;;;;;;4877569;29;43157;-80
2023/10/22 03:35:55;;;;;;;;;;;19.70;90.30;;;;;;4900548;29;42772;-80
2023/10/22 03:38:20;;;;;;;;;;;19.70;90.20;;;;;;4900174;29;42960;-80
2023/10/22 03:40:46;;;;;;;;;;;19.50;90.10;;;;;;4897018;29;43000;-80
2023/10/22 03:43:11;;;;;;;;;;;19.40;90.20;;;;;;4891902;29;42892;-80
2023/10/22 03:45:37;;;;;;;;;;;19.40;90.30;;;;;;4891439;29;42956;-80
2023/10/22 03:48:03;;;;;;;;;;;19.40;90.20;;;;;;4890433;29;43033;-80
2023/10/22 03:50:28;;;;;;;;;;;19.50;90.20;;;;;;4891096;29;43413;-79
2023/10/22 03:52:54;;;;;;;;;;;19.40;90.00;;;;;;4889238;29;43296;-80
2023/10/22 04:00:31;;;;;;;;;;;;;;;;;;5101040;23;43685;-80
2023/10/22 04:02:56;;;;;;;;;;;19.50;89.70;;;;;;4910143;29;42847;-80
2023/10/22 04:05:22;;;;;;;;;;;19.40;89.70;;;;;;4908248;29;45221;-80
2023/10/22 04:07:48;;;;;;;;;;;19.40;89.90;;;;;;4910241;29;43060;-79
2023/10/22 04:15:27;;;;;;;;;;;19.50;89.40;;;;;;5760781;23;42985;-80
2023/10/22 04:17:53;;;;;;;;;;;19.40;89.50;;;;;;4890288;29;43530;-79
2023/10/22 04:20:18;;;;;;;;;;;19.40;89.60;;;;;;4891795;29;43373;-80
2023/10/22 04:22:44;;;;;;;;;;;19.40;89.40;;;;;;4873991;29;42997;-80
2023/10/22 04:25:10;;;;;;;;;;;19.50;89.60;;;;;;4891669;29;43001;-80
2023/10/22 04:27:35;;;;;;;;;;;19.40;89.40;;;;;;4891515;29;42865;-80
2023/10/22 04:30:04;;;;;;;;;;;19.40;89.80;;;;;;4891343;29;44578;-80
2023/10/22 04:32:31;;;;;;;;;;;19.30;89.80;;;;;;4890555;29;42943;-80
2023/10/22 04:40:08;;;;;;;;;;;19.40;88.90;;;;;;5175032;23;43260;-80
2023/10/22 04:42:33;;;;;;;;;;;19.60;89.30;;;;;;4891195;29;42940;-80
2023/10/22 04:44:59;;;;;;;;;;;19.40;89.20;;;;;;4890721;29;43576;-80
2023/10/22 04:47:24;;;;;;;;;;;19.40;89.20;;;;;;4890920;29;42890;-80
2023/10/22 04:49:50;;;;;;;;;;;19.20;89.20;;;;;;4889740;29;42769;-80
2023/10/22 04:52:31;;;;;;;;;;;19.30;89.60;;;;;;4876352;29;42876;-80
2023/10/22 04:55:00;;;;;;;;;;;19.30;86.70;;;;;;4871328;29;42855;-80
2023/10/22 04:57:26;;;;;;;;;;;19.30;89.30;;;;;;4871180;29;43013;-80
2023/10/22 04:59:52;;;;;;;;;;;19.40;89.20;;;;;;4871270;29;43865;-80
2023/10/22 05:02:17;;;;;;;;;;;19.20;88.90;;;;;;4857882;29;43207;-80
2023/10/22 05:04:49;;;;;;;;;;;19.40;89.00;;;;;;5007133;23;43300;-80
2023/10/22 05:07:15;;;;;;;;;;;19.90;87.10;;;;;;4909834;29;42823;-80
2023/10/22 05:18:50;;;;;;;;;;;19.40;86.20;;;;;;4888109;29;42837;-80
2023/10/22 05:21:15;;;;;;;;;;;19.30;88.40;;;;;;4871776;29;44471;-80
2023/10/22 05:24:11;;;;;;;;;;;19.30;88.50;;;;;;4889858;29;42986;-80
2023/10/22 05:26:37;;;;;;;;;;;19.20;88.70;;;;;;4883811;29;44818;-78
2023/10/22 05:29:02;;;;;;;;;;;19.20;89.00;;;;;;4890291;29;42888;-80
2023/10/22 05:31:28;;;;;;;;;;;19.40;88.90;;;;;;4889814;29;42781;-80
2023/10/22 05:33:54;;;;;;;;;;;19.20;88.40;;;;;;4890131;29;42813;-80
2023/10/22 05:36:20;;;;;;;;;;;19.30;88.50;;;;;;4889478;29;44396;-80
2023/10/22 05:38:48;;;;;;;;;;;19.10;89.10;;;;;;4889776;29;42871;-80
2023/10/22 05:41:17;;;;;;;;;;;19.30;88.90;;;;;;4890187;29;43528;-80
2023/10/22 05:43:42;;;;;;;;;;;19.30;89.00;;;;;;4890421;29;42789;-80
2023/10/22 05:46:08;;;;;;;;;;;19.30;88.90;;;;;;4890013;29;43037;-80
2023/10/22 05:48:36;;;;;;;;;;;19.40;88.60;;;;;;5140957;23;43068;-80
2023/10/22 05:57:08;;;;;;;;;;;19.40;87.70;;;;;;4887357;29;42815;-80
2023/10/22 05:59:45;;;;;;;;;;;19.20;88.00;;;;;;4893177;29;42937;-80
2023/10/22 06:02:11;;;;;;;;;;;19.30;88.20;;;;;;4907712;29;43880;-80
2023/10/22 06:04:36;;;;;;;;;;;19.20;88.30;;;;;;4914521;29;42813;-80
2023/10/22 06:07:02;;;;;;;;;;;19.30;88.30;;;;;;4916109;29;42819;-80
2023/10/22 06:09:27;;;;;;;;;;;19.20;87.90;;;;;;4898415;29;42957;-80
2023/10/22 06:11:53;;;;;;;;;;;19.30;88.00;;;;;;4909606;29;42848;-80
2023/10/22 06:14:18;;;;;;;;;;;19.20;88.20;;;;;;4905115;29;43002;-80
2023/10/22 06:16:44;;;;;;;;;;;19.30;88.40;;;;;;4899048;29;43921;-80
2023/10/22 06:19:09;;;;;;;;;;;19.30;88.20;;;;;;4889126;29;42859;-81
2023/10/22 06:21:35;;;;;;;;;;;19.30;87.80;;;;;;4892166;29;43958;-80
2023/10/22 06:24:00;;;;;;;;;;;19.20;87.80;;;;;;4907959;29;42862;-79
2023/10/22 06:26:26;;;;;;;;;;;19.40;88.30;;;;;;4908303;29;43207;-80
2023/10/22 06:28:51;;;;;;;;;;;19.20;88.50;;;;;;4906956;29;42712;-80
2023/10/22 06:34:20;;;;;;;;;;;19.10;88.30;;;;;;4907194;29;42865;-80
2023/10/22 06:36:46;;;;;;;;;;;19.20;88.50;;;;;;4907932;29;42989;-80
2023/10/22 06:39:11;;;;;;;;;;;19.20;88.60;;;;;;4906185;29;43018;-81
2023/10/22 06:41:37;;;;;;;;;;;19.20;89.10;;;;;;4903708;29;42810;-78
2023/10/22 06:44:03;;;;;;;;;;;19.20;88.90;;;;;;4907945;29;43176;-79
2023/10/22 06:46:28;;;;;;;;;;;19.20;89.30;;;;;;4901329;29;42985;-80
2023/10/22 06:48:54;;;;;;;;;;;19.30;89.50;;;;;;4900725;29;43495;-80
2023/10/22 06:51:22;;;;;;;;;;;19.50;89.40;;;;;;4908274;29;42950;-80
2023/10/22 06:53:47;;;;;;;;;;;19.40;89.40;;;;;;4908866;29;43073;-79
2023/10/22 06:56:13;;;;;;;;;;;19.30;89.30;;;;;;4907898;29;43486;-79
2023/10/22 06:58:39;;;;;;;;;;;19.50;89.50;;;;;;4907641;29;43029;-79
2023/10/22 07:01:11;;;;;;;;;;;19.50;89.60;;;;;;4901150;29;43005;-78
2023/10/22 07:03:40;;;;;;;;;;;19.50;87.60;;;;;;4890032;29;43084;-79
2023/10/22 07:06:06;;;;;;;;;;;19.70;87.80;;;;;;4902288;29;43263;-80
2023/10/22 07:08:31;;;;;;;;;;;19.70;90.20;;;;;;4897487;29;43202;-80
2023/10/22 07:10:57;;;;;;;;;;;19.80;90.20;;;;;;4898593;29;43112;-78
2023/10/22 07:13:23;;;;;;;;;;;19.60;90.20;;;;;;4897512;29;42782;-79
2023/10/22 07:15:49;;;;;;;;;;;19.80;89.60;;;;;;4899359;29;42933;-80
2023/10/22 07:18:14;;;;;;;;;;;19.80;89.40;;;;;;4888253;29;43005;-80
2023/10/22 07:20:40;;;;;;;;;;;19.70;89.40;;;;;;4889124;29;42993;-79
2023/10/22 07:23:06;;;;;;;;;;;19.70;89.40;;;;;;4889325;29;42906;-75
2023/10/22 07:25:32;;;;;;;;;;;19.60;89.50;;;;;;4894714;29;43028;-80
2023/10/22 07:27:58;;;;;;;;;;;19.70;89.90;;;;;;4888364;29;42976;-82
2023/10/22 07:30:23;;;;;;;;;;;19.60;89.70;;;;;;4887559;29;43661;-79
2023/10/22 07:32:52;;;;;;;;;;;17.90;88.60;;;;;;4895442;29;42982;-81
2023/10/22 07:35:18;;;;;;;;;;;19.40;90.00;;;;;;4901294;29;42922;-78
2023/10/22 07:37:44;;;;;;;;;;;19.80;89.80;;;;;;4896200;29;42915;-80
2023/10/22 07:40:17;;;;;;;;;;;19.70;89.90;;;;;;4886014;29;44758;-81
2023/10/22 07:42:44;;;;;;;;;;;20.00;90.00;;;;;;4885954;29;43035;-80
2023/10/22 07:45:09;;;;;;;;;;;19.60;90.00;;;;;;4888661;29;42974;-81
2023/10/22 07:47:38;;;;;;;;;;;19.80;90.00;;;;;;4889674;29;43078;-81
2023/10/22 07:50:04;;;;;;;;;;;19.90;90.00;;;;;;4894542;29;43581;-79
2023/10/22 07:52:32;;;;;;;;;;;19.80;89.20;;;;;;4910005;29;43060;-80
2023/10/22 07:54:58;;;;;;;;;;;19.80;90.00;;;;;;4904725;29;43329;-80
2023/10/22 07:57:27;;;;;;;;;;;19.80;89.70;;;;;;4910837;29;43065;-80
2023/10/22 07:59:53;;;;;;;;;;;19.90;90.00;;;;;;4890810;29;44696;-81
2023/10/22 08:02:18;;;;;;;;;;;19.80;90.30;;;;;;4901587;29;43180;-81
2023/10/22 08:04:44;;;;;;;;;;;19.80;90.00;;;;;;4909797;29;42839;-80
2023/10/22 08:07:09;;;;;;;;;;;19.90;90.20;;;;;;4909816;29;42997;-80
2023/10/22 08:09:35;;;;;;;;;;;19.90;90.20;;;;;;4910160;29;43320;-80
2023/10/22 08:12:00;;;;;;;;;;;19.80;90.10;;;;;;4909483;29;42977;-77
2023/10/22 08:14:26;;;;;;;;;;;19.90;90.10;;;;;;4909775;29;42971;-80
2023/10/22 08:16:51;;;;;;;;;;;19.90;90.00;;;;;;4909793;29;42950;-78
2023/10/22 08:19:17;;;;;;;;;;;20.00;90.00;;;;;;4906697;29;43786;-79
2023/10/22 08:21:42;;;;;;;;;;;19.90;89.70;;;;;;4901806;29;42807;-81
2023/10/22 08:24:08;;;;;;;;;;;20.00;89.70;;;;;;4910271;29;42879;-80
2023/10/22 08:26:33;;;;;;;;;;;19.90;89.70;;;;;;4909659;29;42815;-80
2023/10/22 08:28:59;;;;;;;;;;;20.00;90.00;;;;;;4909558;29;43583;-80
2023/10/22 08:31:25;;;;;;;;;;;20.00;90.00;;;;;;4909932;29;42935;-80
2023/10/22 08:33:50;;;;;;;;;;;20.00;89.70;;;;;;4921076;29;42971;-79
2023/10/22 08:36:16;;;;;;;;;;;19.80;89.50;;;;;;4919258;29;42711;-80
2023/10/22 08:38:41;;;;;;;;;;;20.00;89.50;;;;;;4913115;29;43466;-75
2023/10/22 08:41:16;;;;;;;;;;;21.80;90.10;;;;;;4906679;29;42888;-79
2023/10/22 08:43:44;;;;;;;;;;;19.90;87.30;;;;;;4892435;29;44698;-79
2023/10/22 08:46:10;;;;;;;;;;;20.00;90.00;;;;;;4903913;29;43014;-80
2023/10/22 08:48:36;;;;;;;;;;;20.10;89.80;;;;;;4890311;29;43881;-80
2023/10/22 08:51:03;;;;;;;;;;;19.90;89.70;;;;;;4890687;29;42927;-78
2023/10/22 08:53:28;;;;;;;;;;;20.00;89.70;;;;;;4890314;29;43408;-79
2023/10/22 08:55:56;;;;;;;;;;;;;;;;;;4889421;29;42748;-81
2023/10/22 08:58:22;;;;;;;;;;;19.90;88.40;;;;;;4899002;28;42880;-80
2023/10/22 09:00:48;;;;;;;;;;;20.00;89.10;;;;;;4926972;28;42974;-80
2023/10/22 09:03:14;;;;;;;;;;;20.00;89.60;;;;;;4909024;29;42958;-77
2023/10/22 09:05:40;;;;;;;;;;;20.00;89.60;;;;;;4909586;29;43166;-78
2023/10/22 09:08:06;;;;;;;;;;;20.00;89.10;;;;;;4909898;29;42948;-77
2023/10/22 09:10:32;;;;;;;;;;;20.10;89.10;;;;;;4912409;28;42941;-76
2023/10/22 09:13:07;;;;;;;;;;;20.00;89.00;;;;;;4908953;29;43541;-76
2023/10/22 09:15:36;;;;;;;;;;;20.00;87.00;;;;;;4891476;29;42848;-77
2023/10/22 09:18:02;;;;;;;;;;;20.10;87.30;;;;;;4909594;29;43412;-76
2023/10/22 09:20:29;;;;;;;;;;;19.90;90.00;;;;;;4909894;29;42993;-75
2023/10/22 09:23:14;;;;;;;;;;;19.80;90.10;;;;;;4909700;29;43493;-78
2023/10/22 09:25:40;;;;;;;;;;;19.80;87.60;;;;;;4908428;29;43110;-76
2023/10/22 09:28:13;;;;;;;;;;;20.20;89.60;;;;;;4891060;29;43563;-75
2023/10/22 09:30:40;;;;;;;;;;;19.90;87.30;;;;;;4910413;29;43046;-78
2023/10/22 09:33:08;;;;;;;;;;;20.20;89.70;;;;;;4909242;29;44251;-78
2023/10/22 09:35:35;;;;;;;;;;;20.10;89.10;;;;;;4910133;29;42797;-76
2023/10/22 09:38:00;;;;;;;;;;;20.20;89.50;;;;;;4908625;29;42788;-76
2023/10/22 09:40:26;;;;;;;;;;;20.20;88.60;;;;;;4904954;29;42947;-77
2023/10/22 09:42:52;;;;;;;;;;;20.20;88.70;;;;;;4896030;29;43275;-77
2023/10/22 09:45:18;;;;;;;;;;;20.20;88.10;;;;;;4898982;23;43232;-78
2023/10/22 09:47:46;;;;;;;;;;;20.20;88.20;;;;;;4870928;29;43495;-80
2023/10/22 09:50:14;;;;;;;;;;;20.20;88.30;;;;;;4871882;29;42999;-78
2023/10/22 09:52:42;;;;;;;;;;;20.00;88.20;;;;;;4871774;29;43033;-77
2023/10/22 09:55:12;;;;;;;;;;;20.20;88.80;;;;;;4870808;29;42972;-77
2023/10/22 09:57:39;;;;;;;;;;;20.00;89.40;;;;;;4870977;29;43061;-77
2023/10/22 10:00:10;;;;;;;;;;;20.00;89.00;;;;;;4869849;29;43075;-77
2023/10/22 10:02:35;;;;;;;;;;;20.00;88.50;;;;;;4884219;29;44513;-78
2023/10/22 10:05:05;;;;;;;;;;;20.00;89.00;;;;;;4870411;29;42908;-78
2023/10/22 10:07:30;;;;;;;;;;;20.00;86.50;;;;;;4869757;29;43459;-79
2023/10/22 10:09:56;;;;;;;;;;;20.10;88.60;;;;;;4869925;29;43008;-77
2023/10/22 10:12:24;;;;;;;;;;;20.10;88.30;;;;;;4869639;29;43066;-79
2023/10/22 10:14:49;;;;;;;;;;;20.20;88.30;;;;;;4870266;29;42973;-77
2023/10/22 10:17:16;;;;;;;;;;;20.10;88.30;;;;;;4870331;29;44378;-79
2023/10/22 10:19:42;;;;;;;;;;;20.10;88.30;;;;;;4884545;29;43115;-78
2023/10/22 10:22:07;;;;;;;;;;;20.10;88.30;;;;;;4870216;29;43503;-78
2023/10/22 10:24:33;;;;;;;;;;;20.10;88.40;;;;;;4870295;29;42984;-78
2023/10/22 10:26:59;;;;;;;;;;;20.30;88.30;;;;;;4868397;29;42939;-80
2023/10/22 10:29:32;;;;;;;;;;;20.20;88.20;;;;;;4878564;29;43184;-80
2023/10/22 10:32:12;;;;;;;;;;;20.30;86.90;;;;;;4869833;29;43934;-80
2023/10/22 10:34:39;;;;;;;;;;;20.00;87.30;;;;;;4867222;29;42869;-79
2023/10/22 10:37:08;;;;;;;;;;;20.10;88.70;;;;;;4865648;29;43030;-79
2023/10/22 10:39:50;;;;;;;;;;;20.20;88.60;;;;;;4856205;29;42995;-80
2023/10/22 10:42:28;;;;;;;;;;;20.20;87.20;;;;;;4868650;29;43492;-80
2023/10/22 10:45:02;;;;;;;;;;;20.90;87.30;;;;;;4872385;29;42896;-78
2023/10/22 10:47:36;;;;;;;;;;;20.30;86.70;;;;;;4893137;29;42973;-77
2023/10/22 10:50:05;;;;;;;;;;;20.20;86.30;;;;;;4889617;29;42928;-78
2023/10/22 10:52:31;;;;;;;;;;;20.10;85.10;;;;;;4883789;29;42944;-78
2023/10/22 10:55:01;;;;;;;;;;;20.30;88.30;;;;;;4888854;29;42904;-78
2023/10/22 10:57:33;;;;;;;;;;;20.20;86.20;;;;;;4888700;29;43157;-77
2023/10/22 10:59:58;;;;;;;;;;;20.30;86.10;;;;;;4886744;29;42871;-76
2023/10/22 11:02:24;;;;;;;;;;;20.20;88.30;;;;;;4888197;29;43119;-79
2023/10/22 11:04:49;;;;;;;;;;;20.30;88.10;;;;;;4890737;29;43552;-77
2023/10/22 11:07:15;;;;;;;;;;;20.30;87.80;;;;;;4890779;29;43819;-78
2023/10/22 11:09:40;;;;;;;;;;;20.40;88.00;;;;;;4901316;29;43163;-80
2023/10/22 11:12:08;;;;;;;;;;;20.40;88.20;;;;;;4890819;29;42927;-77
2023/10/22 11:14:34;;;;;;;;;;;20.30;87.80;;;;;;5182385;23;43174;-77
2023/10/22 11:16:59;;;;;;;;;;;20.30;88.40;;;;;;4887454;29;43417;-80
2023/10/22 11:19:26;;;;;;;;;;;20.30;88.10;;;;;;4888855;29;42994;-77
2023/10/22 11:21:54;;;;;;;;;;;20.30;88.40;;;;;;4889848;29;43196;-78
2023/10/22 11:24:20;;;;;;;;;;;20.50;87.40;;;;;;4890425;29;43305;-80
2023/10/22 11:26:47;;;;;;;;;;;20.50;87.50;;;;;;4888630;29;44160;-78
2023/10/22 11:29:12;;;;;;;;;;;20.60;88.20;;;;;;4894461;29;43241;-78
2023/10/22 11:31:38;;;;;;;;;;;20.50;88.00;;;;;;4888865;29;43517;-80
2023/10/22 11:34:16;;;;;;;;;;;20.40;88.10;;;;;;4890439;29;42965;-77
2023/10/22 11:36:42;;;;;;;;;;;20.40;85.90;;;;;;4891906;29;42943;-76
2023/10/22 11:39:15;;;;;;;;;;;20.40;88.30;;;;;;4891684;29;43130;-79
2023/10/22 11:41:40;;;;;;;;;;;20.20;86.00;;;;;;4891050;29;42979;-77
2023/10/22 11:44:08;;;;;;;;;;;20.30;88.70;;;;;;4890308;29;43010;-76
2023/10/22 11:46:41;;;;;;;;;;;20.20;87.50;;;;;;4890902;29;42884;-77
2023/10/22 11:49:06;;;;;;;;;;;20.30;85.80;;;;;;4885608;29;42919;-78
2023/10/22 11:51:44;;;;;;;;;;;20.20;87.90;;;;;;4890265;29;42979;-77
2023/10/22 11:54:10;;;;;;;;;;;20.40;85.40;;;;;;4891090;29;42974;-76
2023/10/22 11:56:35;;;;;;;;;;;20.50;88.10;;;;;;4887300;29;44569;-80
2023/10/22 11:59:01;;;;;;;;;;;20.40;87.80;;;;;;4890906;29;43048;-76
2023/10/22 12:01:26;;;;;;;;;;;20.30;87.00;;;;;;4894442;29;42866;-78
2023/10/22 12:03:52;;;;;;;;;;;20.50;87.40;;;;;;4899674;29;42903;-77
2023/10/22 12:06:17;;;;;;;;;;;20.50;86.80;;;;;;4901576;29;43249;-77
2023/10/22 12:08:43;;;;;;;;;;;20.60;86.60;;;;;;4910421;29;42850;-76
2023/10/22 12:11:09;;;;;;;;;;;20.40;86.60;;;;;;4901051;29;42996;-75
2023/10/22 12:13:34;;;;;;;;;;;20.30;86.70;;;;;;4908845;29;43116;-77
2023/10/22 12:16:00;;;;;;;;;;;20.40;86.80;;;;;;4895331;29;43489;-78
2023/10/22 12:18:26;;;;;;;;;;;20.50;87.00;;;;;;4901109;29;43084;-78
2023/10/22 12:20:51;;;;;;;;;;;20.40;86.90;;;;;;4890039;29;43824;-78
2023/10/22 12:23:17;;;;;;;;;;;20.40;87.00;;;;;;4897446;29;42992;-75
2023/10/22 12:25:42;;;;;;;;;;;20.40;86.70;;;;;;4899752;29;43078;-75
2023/10/22 12:28:08;;;;;;;;;;;20.50;86.70;;;;;;4900863;29;42987;-75
2023/10/22 12:30:34;;;;;;;;;;;20.50;86.50;;;;;;4900738;29;42961;-75
2023/10/22 12:33:00;;;;;;;;;;;20.50;86.20;;;;;;4890303;29;43002;-75
2023/10/22 12:35:25;;;;;;;;;;;20.40;85.90;;;;;;4895798;29;43152;-75
2023/10/22 12:37:51;;;;;;;;;;;20.40;86.00;;;;;;4894352;29;43066;-75
2023/10/22 12:40:16;;;;;;;;;;;20.90;86.10;;;;;;4889106;29;42973;-76
2023/10/22 12:42:42;;;;;;;;;;;20.50;86.30;;;;;;4888963;29;43164;-75
2023/10/22 12:45:11;;;;;;;;;;;20.50;85.60;;;;;;4888345;29;42957;-76
2023/10/22 12:47:36;;;;;;;;;;;20.40;83.60;;;;;;4890667;29;42950;-75
2023/10/22 12:50:04;;;;;;;;;;;20.50;85.40;;;;;;4887654;29;43470;-75
2023/10/22 12:52:29;;;;;;;;;;;20.60;85.70;;;;;;4872496;29;43014;-74
2023/10/22 12:54:55;;;;;;;;;;;20.40;85.50;;;;;;4889851;29;43165;-73
2023/10/22 12:57:21;;;;;;;;;;;20.40;85.30;;;;;;4895276;29;43076;-74
2023/10/22 12:59:46;;;;;;;;;;;20.30;85.20;;;;;;4909245;29;43481;-75
2023/10/22 13:02:13;;;;;;;;;;;20.50;85.70;;;;;;4889284;29;43012;-76
2023/10/22 13:04:40;;;;;;;;;;;20.50;84.50;;;;;;4889295;29;43603;-75
2023/10/22 13:07:05;;;;;;;;;;;20.60;84.80;;;;;;4890695;29;42983;-75
2023/10/22 13:09:31;;;;;;;;;;;20.50;84.80;;;;;;4889647;29;42905;-74
2023/10/22 13:11:57;;;;;;;;;;;20.50;84.80;;;;;;4888768;29;43133;-75
2023/10/22 13:14:22;;;;;;;;;;;20.50;84.40;;;;;;4888579;29;43476;-75
2023/10/22 13:16:48;;;;;;;;;;;20.40;83.90;;;;;;4890258;29;43018;-75
2023/10/22 13:19:14;;;;;;;;;;;19.20;83.30;;;;;;4888262;29;43096;-77
2023/10/22 13:21:39;;;;;;;;;;;20.40;83.30;;;;;;4872141;29;43101;-75
2023/10/22 13:24:05;;;;;;;;;;;20.30;83.40;;;;;;4883638;29;43613;-75
2023/10/22 13:26:31;;;;;;;;;;;20.50;81.50;;;;;;4885145;29;42981;-76
2023/10/22 13:29:00;;;;;;;;;;;21.70;82.90;;;;;;4885040;29;43505;-75
2023/10/22 13:31:26;;;;;;;;;;;20.40;81.40;;;;;;4884948;29;43012;-77
2023/10/22 13:33:51;;;;;;;;;;;20.30;82.00;;;;;;4886907;29;43179;-77
2023/10/22 13:36:17;;;;;;;;;;;20.60;81.30;;;;;;4893763;29;43018;-79
2023/10/22 13:38:43;;;;;;;;;;;20.40;80.70;;;;;;4894576;29;43603;-76
2023/10/22 13:41:08;;;;;;;;;;;20.40;80.80;;;;;;4896340;29;42973;-78
2023/10/22 13:43:34;;;;;;;;;;;20.30;80.20;;;;;;4891134;29;43050;-81
2023/10/22 13:46:00;;;;;;;;;;;20.40;80.10;;;;;;4890693;29;42764;-76
2023/10/22 13:48:26;;;;;;;;;;;20.20;80.80;;;;;;4889969;29;42967;-78
2023/10/22 13:50:51;;;;;;;;;;;20.40;80.50;;;;;;4890382;29;42971;-77
2023/10/22 13:53:17;;;;;;;;;;;20.40;79.90;;;;;;4889993;29;43612;-76
2023/10/22 13:55:42;;;;;;;;;;;20.50;79.70;;;;;;4889768;29;42998;-77
2023/10/22 13:58:08;;;;;;;;;;;20.30;79.70;;;;;;4889935;29;44442;-76
2023/10/22 14:00:35;;;;;;;;;;;20.40;80.00;;;;;;4889782;29;42781;-77
2023/10/22 14:03:01;;;;;;;;;;;20.40;80.30;;;;;;4889608;29;42804;-77
2023/10/22 14:05:26;;;;;;;;;;;20.50;79.90;;;;;;4890242;29;43062;-77
2023/10/22 14:07:53;;;;;;;;;;;20.50;79.40;;;;;;4890150;29;43409;-76
2023/10/22 14:10:18;;;;;;;;;;;20.40;80.50;;;;;;4889971;29;43003;-77
2023/10/22 14:12:46;;;;;;;;;;;20.40;80.10;;;;;;4889047;29;42967;-76
2023/10/22 14:15:11;;;;;;;;;;;20.30;79.10;;;;;;4889347;29;42926;-76
2023/10/22 14:17:37;;;;;;;;;;;19.80;78.60;;;;;;4889331;29;42711;-76
2023/10/22 14:20:03;;;;;;;;;;;20.40;79.20;;;;;;4889710;29;42966;-77
2023/10/22 14:22:28;;;;;;;;;;;20.20;79.20;;;;;;4889532;29;43498;-77
2023/10/22 14:24:54;;;;;;;;;;;20.40;79.20;;;;;;4889560;29;42908;-77
2023/10/22 14:27:23;;;;;;;;;;;20.50;79.10;;;;;;4889593;29;43328;-76
2023/10/22 14:29:50;;;;;;;;;;;20.40;77.20;;;;;;4890227;29;42796;-76
2023/10/22 14:32:15;;;;;;;;;;;20.30;79.80;;;;;;4889062;29;42976;-78
2023/10/22 14:34:41;;;;;;;;;;;20.60;79.30;;;;;;4888810;29;42911;-75
2023/10/22 14:37:09;;;;;;;;;;;20.60;79.00;;;;;;4889107;29;43674;-76
2023/10/22 14:39:35;;;;;;;;;;;20.30;78.60;;;;;;4889798;29;42987;-76
2023/10/22 14:42:01;;;;;;;;;;;20.60;79.10;;;;;;4888768;29;43003;-75
2023/10/22 14:44:26;;;;;;;;;;;20.80;78.40;;;;;;4887489;29;43046;-75
2023/10/22 14:46:52;;;;;;;;;;;20.40;78.30;;;;;;4889541;29;42931;-76
2023/10/22 14:49:17;;;;;;;;;;;20.50;78.90;;;;;;4889280;29;43038;-79
2023/10/22 14:51:43;;;;;;;;;;;20.40;78.50;;;;;;4888503;29;43384;-77
2023/10/22 14:54:10;;;;;;;;;;;20.50;78.50;;;;;;4890819;29;42970;-77
2023/10/22 14:56:35;;;;;;;;;;;20.50;78.20;;;;;;4892499;29;43301;-76
2023/10/22 14:59:01;;;;;;;;;;;20.50;78.30;;;;;;4892652;29;42970;-76
2023/10/22 15:01:27;;;;;;;;;;;20.40;78.70;;;;;;4892325;29;42761;-76
2023/10/22 15:03:52;;;;;;;;;;;20.50;78.20;;;;;;4892600;29;42913;-78
2023/10/22 15:06:18;;;;;;;;;;;20.50;78.30;;;;;;4891889;29;42985;-76
2023/10/22 15:08:43;;;;;;;;;;;20.60;78.50;;;;;;4892589;29;43000;-80
2023/10/22 15:11:14;;;;;;;;;;;20.50;78.20;;;;;;4891998;29;43488;-76
2023/10/22 15:13:40;;;;;;;;;;;20.70;78.50;;;;;;4891594;29;42932;-77
2023/10/22 15:16:09;;;;;;;;;;;20.60;78.90;;;;;;4891574;29;43572;-76
2023/10/22 15:18:35;;;;;;;;;;;20.40;78.10;;;;;;4893080;29;42961;-77
2023/10/22 15:21:00;;;;;;;;;;;20.60;78.00;;;;;;4892621;29;43887;-76
2023/10/22 15:23:26;;;;;;;;;;;20.50;78.50;;;;;;4892888;29;42983;-77
2023/10/22 15:25:51;;;;;;;;;;;20.30;78.30;;;;;;4892899;29;43888;-76
2023/10/22 15:28:17;;;;;;;;;;;20.60;78.20;;;;;;4893465;29;43005;-76
2023/10/22 15:30:44;;;;;;;;;;;20.70;78.30;;;;;;4892762;29;43050;-81
2023/10/22 15:33:10;;;;;;;;;;;20.50;78.30;;;;;;4893350;29;42770;-76
2023/10/22 15:35:35;;;;;;;;;;;20.80;78.10;;;;;;4893552;29;42892;-80
2023/10/22 15:38:02;;;;;;;;;;;20.70;77.70;;;;;;4892383;29;43054;-75
2023/10/22 15:40:28;;;;;;;;;;;20.80;77.70;;;;;;4892424;29;42906;-75
2023/10/22 15:42:54;;;;;;;;;;;20.70;77.80;;;;;;4894720;29;43030;-78
2023/10/22 15:45:23;;;;;;;;;;;20.50;78.20;;;;;;4893240;29;43404;-76
2023/10/22 15:47:52;;;;;;;;;;;20.80;77.50;;;;;;4892630;29;43441;-76
2023/10/22 15:50:18;;;;;;;;;;;20.60;75.20;;;;;;4892007;29;43591;-82
2023/10/22 15:52:44;;;;;;;;;;;;;;;;;;4891685;29;43034;-76
2023/10/22 15:55:10;;;;;;;;;;;21.00;77.30;;;;;;4890287;29;44857;-76
2023/10/22 15:57:35;;;;;;;;;;;21.00;78.00;;;;;;4891639;29;42923;-79
2023/10/22 16:00:01;;;;;;;;;;;21.30;80.20;;;;;;4891750;29;43708;-76
2023/10/22 16:02:27;;;;;;;;;;;20.60;80.40;;;;;;4892293;29;43099;-77
2023/10/22 16:04:53;;;;;;;;;;;20.90;80.20;;;;;;4895145;29;43812;-76
2023/10/22 16:07:21;;;;;;;;;;;20.90;80.40;;;;;;4896980;29;42979;-76
2023/10/22 16:09:50;;;;;;;;;;;21.00;81.00;;;;;;4895021;29;44485;-76